createdAt,value
2023-01-10T00:03:55.995Z,10.20
2023-01-10T00:13:59.785Z,10.30
2023-01-10T00:24:18.307Z,10.20
2023-01-10T00:34:22.894Z,10.30
2023-01-10T00:44:29.151Z,9.90
2023-01-10T00:54:33.253Z,9.80
2023-01-10T01:04:38.583Z,9.40
2023-01-10T01:14:42.473Z,9.50
2023-01-10T01:24:47.943Z,9.10
2023-01-10T01:34:51.928Z,8.80
2023-01-10T01:45:34.516Z,8.90
2023-01-10T01:55:40.190Z,8.60
2023-01-10T02:05:47.132Z,8.20
2023-01-10T02:15:51.390Z,8.70
2023-01-10T02:26:30.435Z,8.60
2023-01-10T02:36:44.381Z,9.00
2023-01-10T02:46:50.167Z,9.30
2023-01-10T02:57:18.672Z,8.60
2023-01-10T03:07:27.789Z,8.10
2023-01-10T03:17:33.329Z,8.00
2023-01-10T03:27:45.580Z,7.70
2023-01-10T03:37:56.785Z,7.50
2023-01-10T03:48:04.328Z,7.90
2023-01-10T03:58:09.528Z,8.00
2023-01-10T04:08:13.460Z,7.50
2023-01-10T04:18:19.394Z,7.50
2023-01-10T04:28:24.566Z,7.60
2023-01-10T04:38:30.210Z,7.90
2023-01-10T04:48:34.307Z,7.90
2023-01-10T04:58:40.262Z,7.80
2023-01-10T05:08:44.098Z,7.90
2023-01-10T05:18:49.209Z,8.00
2023-01-10T05:28:52.988Z,8.00
2023-01-10T05:38:58.910Z,8.00
2023-01-10T05:49:02.956Z,8.00
2023-01-10T05:59:20.178Z,8.20
2023-01-10T06:09:30.890Z,8.20
2023-01-10T06:19:36.006Z,8.00
2023-01-10T06:29:39.669Z,8.10
2023-01-10T06:39:47.229Z,8.10
2023-01-10T06:49:50.945Z,8.00
2023-01-10T06:59:56.475Z,8.00
2023-01-10T07:10:00.184Z,8.10
2023-01-10T07:20:05.729Z,8.10
2023-01-10T07:30:11.050Z,8.10
2023-01-10T07:40:16.399Z,8.20
2023-01-10T07:50:20.263Z,8.30
2023-01-10T08:00:25.987Z,8.50
2023-01-10T08:10:29.967Z,8.60
2023-01-10T08:20:35.604Z,8.90
2023-01-10T08:30:39.609Z,9.30
2023-01-10T08:40:44.820Z,9.50
2023-01-10T08:50:48.593Z,9.60
2023-01-10T09:00:53.895Z,10.30
2023-01-10T09:11:00.447Z,11.00
2023-01-10T09:21:05.932Z,11.60
2023-01-10T09:31:11.510Z,11.40
2023-01-10T09:41:37.520Z,11.70
2023-01-10T09:51:44.609Z,12.60
2023-01-10T10:01:53.926Z,12.50
2023-01-10T10:12:23.657Z,12.60
2023-01-10T10:22:37.402Z,13.00
2023-01-10T10:32:52.250Z,13.50
2023-01-10T10:43:00.645Z,14.30
2023-01-10T10:53:06.184Z,15.30
2023-01-10T11:03:23.498Z,14.60
2023-01-10T11:13:44.862Z,14.50
2023-01-10T11:23:55.378Z,14.80
2023-01-10T11:33:59.737Z,15.40
2023-01-10T11:44:22.353Z,15.80
2023-01-10T11:54:28.391Z,16.70
2023-01-10T12:04:36.371Z,18.00
2023-01-10T12:14:40.169Z,17.60
2023-01-10T12:24:48.531Z,19.30
2023-01-10T12:34:58.585Z,20.20
2023-01-10T12:45:07.552Z,19.20
2023-01-10T12:55:16.191Z,19.10
2023-01-10T13:05:23.555Z,18.90
2023-01-10T13:15:31.900Z,19.20
2023-01-10T13:25:39.953Z,19.20
2023-01-10T13:35:49.233Z,19.20
2023-01-10T13:46:41.857Z,19.00
2023-01-10T13:56:46.674Z,19.30
2023-01-10T14:06:56.574Z,19.20
2023-01-10T14:17:14.047Z,19.00
2023-01-10T14:27:33.761Z,19.70
2023-01-10T14:37:43.981Z,20.90
2023-01-10T14:47:49.845Z,21.90
2023-01-10T14:57:58.675Z,20.20
2023-01-10T15:08:22.053Z,18.10
2023-01-10T15:18:36.383Z,18.10
2023-01-10T15:28:41.676Z,18.50
2023-01-10T15:38:47.700Z,19.40
2023-01-10T15:49:01.718Z,19.00
2023-01-10T15:59:08.377Z,17.30
2023-01-10T16:09:22.058Z,17.00
2023-01-10T16:19:26.011Z,15.50
2023-01-10T16:29:31.417Z,14.60
2023-01-10T16:39:35.267Z,14.50
2023-01-10T16:49:41.941Z,14.00
2023-01-10T16:59:45.994Z,13.60
2023-01-10T17:09:51.330Z,12.60
2023-01-10T17:19:55.148Z,12.10
2023-01-10T17:30:00.219Z,11.80
2023-01-10T17:40:04.116Z,11.30
2023-01-10T17:50:10.058Z,11.20
2023-01-10T18:00:14.785Z,11.00
2023-01-10T18:10:20.451Z,10.80
2023-01-10T18:20:24.212Z,10.50
2023-01-10T18:30:29.543Z,10.20
2023-01-10T18:40:33.509Z,10.10
2023-01-10T18:50:39.433Z,9.60
2023-01-10T19:00:44.294Z,9.70
2023-01-10T19:11:11.761Z,9.70
2023-01-10T19:21:16.228Z,9.70
2023-01-10T19:31:23.361Z,9.80
2023-01-10T19:41:31.457Z,9.40
2023-01-10T19:51:38.046Z,9.30
2023-01-10T20:01:42.245Z,9.10
2023-01-10T20:11:47.466Z,8.90
2023-01-10T20:21:51.812Z,9.10
2023-01-10T20:32:01.492Z,9.20
2023-01-10T20:42:08.204Z,9.20
2023-01-10T20:52:13.456Z,9.10
2023-01-10T21:02:17.635Z,9.10
2023-01-10T21:12:27.461Z,9.00
2023-01-10T21:22:32.357Z,9.70
2023-01-10T21:32:37.597Z,10.00
2023-01-10T21:42:45.086Z,9.80
2023-01-10T21:52:50.646Z,9.30
2023-01-10T22:02:54.312Z,9.90
2023-01-10T22:12:59.337Z,10.90
2023-01-10T22:23:03.376Z,10.80
2023-01-10T22:33:08.650Z,10.30
2023-01-10T22:43:12.388Z,10.30
2023-01-10T22:53:17.527Z,10.10
2023-01-10T23:03:21.462Z,10.40
2023-01-10T23:13:26.848Z,10.40
2023-01-10T23:23:30.818Z,9.90
2023-01-10T23:33:36.299Z,10.80
2023-01-10T23:43:40.118Z,11.00
2023-01-10T23:53:45.269Z,10.80
